createdAt,value
2023-02-08T00:02:26.930Z,73.27
2023-02-08T00:05:00.254Z,73.15
2023-02-08T00:07:32.404Z,72.97
2023-02-08T00:10:07.097Z,73.00
2023-02-08T00:12:39.004Z,72.87
2023-02-08T00:15:11.034Z,72.99
2023-02-08T00:17:42.956Z,72.96
2023-02-08T00:20:15.713Z,72.68
2023-02-08T00:22:47.671Z,72.67
2023-02-08T00:25:19.903Z,72.66
2023-02-08T00:27:51.913Z,72.75
2023-02-08T00:30:23.960Z,72.84
2023-02-08T00:32:56.033Z,72.58
2023-02-08T00:35:29.072Z,72.91
2023-02-08T00:38:01.233Z,72.95
2023-02-08T00:40:33.202Z,72.62
2023-02-08T00:43:07.281Z,72.87
2023-02-08T00:45:39.404Z,72.97
2023-02-08T00:48:11.436Z,73.05
2023-02-08T00:50:43.398Z,73.18
2023-02-08T00:53:15.351Z,73.13
2023-02-08T00:55:52.496Z,72.93
2023-02-08T00:58:24.839Z,73.06
2023-02-08T01:00:57.085Z,73.07
2023-02-08T01:03:29.040Z,73.15
2023-02-08T01:06:06.249Z,73.05
2023-02-08T01:08:38.258Z,73.12
2023-02-08T01:11:22.063Z,72.86
2023-02-08T01:13:57.691Z,72.85
2023-02-08T01:16:34.148Z,73.25
2023-02-08T01:19:08.323Z,73.36
2023-02-08T01:21:41.731Z,73.54
2023-02-08T01:24:13.645Z,73.38
2023-02-08T01:26:45.702Z,73.33
2023-02-08T01:29:18.020Z,73.27
2023-02-08T01:31:50.092Z,73.32
2023-02-08T01:34:22.182Z,74.00
2023-02-08T01:36:54.282Z,73.89
2023-02-08T01:39:26.228Z,73.58
2023-02-08T01:41:58.202Z,73.94
2023-02-08T01:45:07.980Z,74.02
2023-02-08T01:47:40.020Z,73.60
2023-02-08T01:50:12.776Z,73.51
2023-02-08T01:52:46.292Z,73.59
2023-02-08T01:55:26.421Z,73.75
2023-02-08T01:58:02.216Z,73.69
2023-02-08T02:00:34.483Z,74.10
2023-02-08T02:03:06.767Z,73.75
2023-02-08T02:05:45.472Z,73.50
2023-02-08T02:08:17.580Z,73.07
2023-02-08T02:10:50.817Z,73.09
2023-02-08T02:13:25.328Z,73.21
2023-02-08T02:15:57.434Z,73.97
2023-02-08T02:18:33.947Z,73.35
2023-02-08T02:21:15.791Z,73.39
2023-02-08T02:24:25.583Z,73.20
2023-02-08T02:27:20.043Z,73.40
2023-02-08T02:30:16.917Z,73.36
2023-02-08T02:33:02.136Z,73.19
2023-02-08T02:36:05.338Z,73.35
2023-02-08T02:38:37.270Z,73.32
2023-02-08T02:41:09.211Z,73.35
2023-02-08T02:43:55.617Z,73.56
2023-02-08T02:46:30.345Z,73.72
2023-02-08T02:49:27.997Z,73.85
2023-02-08T02:52:08.735Z,73.47
2023-02-08T02:54:54.898Z,73.56
2023-02-08T02:57:32.904Z,73.64
2023-02-08T03:00:21.982Z,73.76
2023-02-08T03:02:57.128Z,74.37
2023-02-08T03:05:30.506Z,73.60
2023-02-08T03:08:02.463Z,73.10
2023-02-08T03:11:14.882Z,72.96
2023-02-08T03:14:02.853Z,72.95
2023-02-08T03:17:02.956Z,72.96
2023-02-08T03:20:13.274Z,73.13
2023-02-08T03:22:45.254Z,73.26
2023-02-08T03:25:20.702Z,73.21
2023-02-08T03:28:01.941Z,73.31
2023-02-08T03:30:51.614Z,73.10
2023-02-08T03:33:37.609Z,73.13
2023-02-08T03:36:20.832Z,73.01
2023-02-08T03:38:55.080Z,73.50
2023-02-08T03:41:32.524Z,73.53
2023-02-08T03:44:11.280Z,73.44
2023-02-08T03:46:51.520Z,73.50
2023-02-08T03:49:30.792Z,73.45
2023-02-08T03:52:06.295Z,73.79
2023-02-08T03:55:01.998Z,74.23
2023-02-08T03:57:39.001Z,74.10
2023-02-08T04:00:14.984Z,74.36
2023-02-08T04:03:01.856Z,74.52
2023-02-08T04:05:34.200Z,74.29
2023-02-08T04:08:06.235Z,74.32
2023-02-08T04:10:38.571Z,74.32
2023-02-08T04:13:10.614Z,74.37
2023-02-08T04:15:44.535Z,74.55
2023-02-08T04:18:16.559Z,74.39
2023-02-08T04:20:48.512Z,74.13
2023-02-08T04:23:20.636Z,74.25
2023-02-08T04:25:52.578Z,74.75
2023-02-08T04:28:24.558Z,74.56
2023-02-08T04:30:59.992Z,74.59
2023-02-08T04:33:32.118Z,74.32
2023-02-08T04:36:04.314Z,74.48
2023-02-08T04:38:36.553Z,74.35
2023-02-08T04:41:08.494Z,74.77
2023-02-08T04:43:40.462Z,75.15
2023-02-08T04:46:12.483Z,74.94
2023-02-08T04:48:44.564Z,74.67
2023-02-08T04:51:16.567Z,74.69
2023-02-08T04:53:48.530Z,74.62
2023-02-08T04:56:33.330Z,74.29
2023-02-08T04:59:05.418Z,74.20
2023-02-08T05:01:37.426Z,74.14
2023-02-08T05:04:09.422Z,74.04
2023-02-08T05:06:41.393Z,73.99
2023-02-08T05:09:13.824Z,74.08
2023-02-08T05:11:45.826Z,74.09
2023-02-08T05:14:17.889Z,73.91
2023-02-08T05:16:49.823Z,73.70
2023-02-08T05:19:21.984Z,73.68
2023-02-08T05:21:53.963Z,73.24
2023-02-08T05:24:26.471Z,73.14
2023-02-08T05:26:58.429Z,73.45
2023-02-08T05:29:30.485Z,73.05
2023-02-08T05:32:02.426Z,73.21
2023-02-08T05:34:34.477Z,73.01
2023-02-08T05:37:06.516Z,73.31
2023-02-08T05:39:38.506Z,73.64
2023-02-08T05:42:10.441Z,73.37
2023-02-08T05:44:42.405Z,73.29
2023-02-08T05:47:14.450Z,73.33
2023-02-08T05:49:46.445Z,73.11
2023-02-08T05:52:18.373Z,73.27
2023-02-08T05:54:50.373Z,73.76
2023-02-08T05:57:22.398Z,73.37
2023-02-08T05:59:54.337Z,73.13
2023-02-08T06:02:26.495Z,73.30
2023-02-08T06:04:58.759Z,73.26
2023-02-08T06:07:30.754Z,73.30
2023-02-08T06:10:03.189Z,73.43
2023-02-08T06:12:35.163Z,73.36
2023-02-08T06:15:07.410Z,73.27
2023-02-08T06:17:39.333Z,73.32
2023-02-08T06:20:12.193Z,73.99
2023-02-08T06:22:44.170Z,73.60
2023-02-08T06:25:16.193Z,73.81
2023-02-08T06:27:48.244Z,73.69
2023-02-08T06:30:20.404Z,73.94
2023-02-08T06:32:52.667Z,73.61
2023-02-08T06:35:24.646Z,74.00
2023-02-08T06:37:56.740Z,73.98
2023-02-08T06:40:28.711Z,73.51
2023-02-08T06:43:00.649Z,73.75
2023-02-08T06:45:32.674Z,73.40
2023-02-08T06:48:05.109Z,74.00
2023-02-08T06:50:38.406Z,73.85
2023-02-08T06:53:10.423Z,73.60
2023-02-08T06:55:42.492Z,73.41
2023-02-08T06:58:14.493Z,73.25
2023-02-08T07:00:46.922Z,73.66
2023-02-08T07:03:19.137Z,73.83
2023-02-08T07:06:04.049Z,73.38
2023-02-08T07:08:36.968Z,73.19
2023-02-08T07:11:17.668Z,73.10
2023-02-08T07:13:50.472Z,73.27
2023-02-08T07:16:22.540Z,73.14
2023-02-08T07:18:54.532Z,73.05
2023-02-08T07:21:26.672Z,72.75
2023-02-08T07:23:58.644Z,73.07
2023-02-08T07:26:30.517Z,72.57
2023-02-08T07:29:02.506Z,72.51
2023-02-08T07:31:34.485Z,72.69
2023-02-08T07:34:06.434Z,72.43
2023-02-08T07:36:38.623Z,71.94
2023-02-08T07:39:10.732Z,72.21
2023-02-08T07:41:42.727Z,71.85
2023-02-08T07:44:14.725Z,71.83
2023-02-08T07:46:46.807Z,71.48
2023-02-08T07:49:18.909Z,71.53
2023-02-08T07:51:50.956Z,71.50
2023-02-08T07:54:23.226Z,70.98
2023-02-08T07:56:55.483Z,70.83
2023-02-08T07:59:27.622Z,70.98
2023-02-08T08:01:59.646Z,70.86
2023-02-08T08:04:31.646Z,70.91
2023-02-08T08:07:03.736Z,70.51
2023-02-08T08:09:35.645Z,70.51
2023-02-08T08:12:07.685Z,70.44
2023-02-08T08:14:39.721Z,71.12
2023-02-08T08:17:12.158Z,70.32
2023-02-08T08:19:44.132Z,70.33
2023-02-08T08:22:16.542Z,69.83
2023-02-08T08:24:48.562Z,70.46
2023-02-08T08:27:20.635Z,69.79
2023-02-08T08:29:52.656Z,69.24
2023-02-08T08:32:24.656Z,68.80
2023-02-08T08:34:56.798Z,68.93
2023-02-08T08:37:28.761Z,68.70
2023-02-08T08:40:01.232Z,68.31
2023-02-08T08:42:34.725Z,68.71
2023-02-08T08:45:08.007Z,68.04
2023-02-08T08:47:40.063Z,67.64
2023-02-08T08:50:12.155Z,67.21
2023-02-08T08:52:44.180Z,67.10
2023-02-08T08:55:16.220Z,66.60
2023-02-08T08:57:48.192Z,66.16
2023-02-08T09:00:21.813Z,66.49
2023-02-08T09:02:53.911Z,66.02
2023-02-08T09:05:26.033Z,65.91
2023-02-08T09:07:58.453Z,65.05
2023-02-08T09:10:31.332Z,64.66
2023-02-08T09:13:03.372Z,65.00
2023-02-08T09:15:39.954Z,64.63
2023-02-08T09:18:12.021Z,64.49
2023-02-08T09:20:44.518Z,64.25
2023-02-08T09:23:16.620Z,64.11
2023-02-08T09:25:50.128Z,64.03
2023-02-08T09:28:22.243Z,63.02
2023-02-08T09:30:54.344Z,63.27
2023-02-08T09:33:29.203Z,62.59
2023-02-08T09:36:01.115Z,63.04
2023-02-08T09:38:34.672Z,63.08
2023-02-08T09:41:09.306Z,61.98
2023-02-08T09:43:56.455Z,60.87
2023-02-08T09:46:32.707Z,60.72
2023-02-08T09:49:09.307Z,60.22
2023-02-08T09:51:50.609Z,60.07
2023-02-08T09:54:39.871Z,59.94
2023-02-08T09:57:16.907Z,58.66
2023-02-08T09:59:56.800Z,59.90
2023-02-08T10:02:31.711Z,60.34
2023-02-08T10:05:10.937Z,59.90
2023-02-08T10:07:43.443Z,59.67
2023-02-08T10:10:36.037Z,58.62
2023-02-08T10:13:40.786Z,59.26
2023-02-08T10:16:32.071Z,58.37
2023-02-08T10:19:10.040Z,58.33
2023-02-08T10:22:28.610Z,55.31
2023-02-08T10:25:19.689Z,55.44
2023-02-08T10:28:03.667Z,54.69
2023-02-08T10:30:47.888Z,54.65
2023-02-08T10:33:42.292Z,55.47
2023-02-08T10:36:19.010Z,53.63
2023-02-08T10:38:54.191Z,54.00
2023-02-08T10:41:33.961Z,54.05
2023-02-08T10:44:21.265Z,54.24
2023-02-08T10:46:57.684Z,55.72
2023-02-08T10:49:42.983Z,54.61
2023-02-08T10:52:14.930Z,54.88
2023-02-08T10:54:47.064Z,53.65
2023-02-08T10:57:25.251Z,54.56
2023-02-08T11:00:03.591Z,54.32
2023-02-08T11:02:41.708Z,54.38
2023-02-08T11:05:17.641Z,54.97
2023-02-08T11:08:06.434Z,54.35
2023-02-08T11:10:41.046Z,54.68
2023-02-08T11:13:21.048Z,53.18
2023-02-08T11:15:59.338Z,52.18
2023-02-08T11:18:41.801Z,53.40
2023-02-08T11:21:36.953Z,52.85
2023-02-08T11:24:30.322Z,52.70
2023-02-08T11:27:03.251Z,52.11
2023-02-08T11:29:35.229Z,51.16
2023-02-08T11:32:19.042Z,50.74
2023-02-08T11:34:50.973Z,51.88
2023-02-08T11:37:28.914Z,50.69
2023-02-08T11:40:04.198Z,51.31
2023-02-08T11:42:41.197Z,50.59
2023-02-08T11:45:23.502Z,50.90
2023-02-08T11:47:55.675Z,51.24
2023-02-08T11:50:31.529Z,49.79
2023-02-08T11:53:33.768Z,50.96
2023-02-08T11:56:23.759Z,51.10
2023-02-08T11:59:19.350Z,50.37
2023-02-08T12:01:51.446Z,48.93
2023-02-08T12:04:23.412Z,50.49
2023-02-08T12:07:21.622Z,50.99
2023-02-08T12:10:21.497Z,49.40
2023-02-08T12:13:00.829Z,50.77
2023-02-08T12:15:58.526Z,48.22
2023-02-08T12:19:06.564Z,49.42
2023-02-08T12:21:46.733Z,50.73
2023-02-08T12:24:23.948Z,49.17
2023-02-08T12:27:17.305Z,48.96
2023-02-08T12:29:55.041Z,49.68
2023-02-08T12:32:42.536Z,50.28
2023-02-08T12:36:03.243Z,50.45
2023-02-08T12:39:25.717Z,51.10
2023-02-08T12:42:07.265Z,51.06
2023-02-08T12:45:36.910Z,49.48
2023-02-08T12:48:11.783Z,50.71
2023-02-08T12:50:56.709Z,49.93
2023-02-08T12:53:35.588Z,49.55
2023-02-08T12:56:16.952Z,50.07
2023-02-08T12:58:59.175Z,50.20
2023-02-08T13:01:43.687Z,50.75
2023-02-08T13:04:28.018Z,51.09
2023-02-08T13:07:04.769Z,51.26
2023-02-08T13:10:12.285Z,50.31
2023-02-08T13:12:53.864Z,50.74
2023-02-08T13:15:50.828Z,49.75
2023-02-08T13:18:28.391Z,50.18
2023-02-08T13:21:16.011Z,50.23
2023-02-08T13:23:53.264Z,50.36
2023-02-08T13:26:31.773Z,50.65
2023-02-08T13:29:06.570Z,50.52
2023-02-08T13:31:42.826Z,51.13
2023-02-08T13:34:48.075Z,51.58
2023-02-08T13:37:32.440Z,52.35
2023-02-08T13:40:17.357Z,52.66
2023-02-08T13:42:58.464Z,52.02
2023-02-08T13:45:34.778Z,51.65
2023-02-08T13:48:09.057Z,51.78
2023-02-08T13:50:53.196Z,51.58
2023-02-08T13:53:40.987Z,51.21
2023-02-08T13:56:13.509Z,51.54
2023-02-08T13:58:48.305Z,52.04
2023-02-08T14:01:20.313Z,51.48
2023-02-08T14:04:07.703Z,51.62
2023-02-08T14:06:55.728Z,51.89
2023-02-08T14:09:37.546Z,52.27
2023-02-08T14:12:36.904Z,52.15
2023-02-08T14:15:15.062Z,51.67
2023-02-08T14:17:50.308Z,51.51
2023-02-08T14:20:41.127Z,51.62
2023-02-08T14:23:23.738Z,52.05
2023-02-08T14:25:59.061Z,52.86
2023-02-08T14:28:46.838Z,52.45
2023-02-08T14:31:23.447Z,53.29
2023-02-08T14:33:57.218Z,54.57
2023-02-08T14:36:35.474Z,54.33
2023-02-08T14:39:35.173Z,54.17
2023-02-08T14:42:10.336Z,54.88
2023-02-08T14:44:43.582Z,55.95
2023-02-08T14:47:37.276Z,55.81
2023-02-08T14:50:16.206Z,56.28
2023-02-08T14:52:57.593Z,55.79
2023-02-08T14:55:41.304Z,55.59
2023-02-08T14:58:22.819Z,56.74
2023-02-08T15:00:58.088Z,55.75
2023-02-08T15:03:34.172Z,55.80
2023-02-08T15:06:22.818Z,56.30
2023-02-08T15:08:55.955Z,56.12
2023-02-08T15:11:31.696Z,56.76
2023-02-08T15:14:06.289Z,57.42
2023-02-08T15:16:43.998Z,56.64
2023-02-08T15:19:43.657Z,57.50
2023-02-08T15:22:18.805Z,57.23
2023-02-08T15:25:16.743Z,57.58
2023-02-08T15:27:55.114Z,58.27
2023-02-08T15:30:30.246Z,58.40
2023-02-08T15:33:08.696Z,61.43
2023-02-08T15:35:41.616Z,60.91
2023-02-08T15:38:19.226Z,60.42
2023-02-08T15:41:03.589Z,60.07
2023-02-08T15:43:37.541Z,61.10
2023-02-08T15:46:24.035Z,61.18
2023-02-08T15:48:59.963Z,61.39
2023-02-08T15:51:33.890Z,62.07
2023-02-08T15:54:06.783Z,62.60
2023-02-08T15:56:42.448Z,62.67
2023-02-08T15:59:22.950Z,63.25
2023-02-08T16:01:57.642Z,63.86
2023-02-08T16:04:29.666Z,64.19
2023-02-08T16:07:01.745Z,63.92
2023-02-08T16:09:33.723Z,63.82
2023-02-08T16:12:06.570Z,63.77
2023-02-08T16:14:52.369Z,64.49
2023-02-08T16:17:45.458Z,65.00
2023-02-08T16:20:29.682Z,64.62
2023-02-08T16:23:22.146Z,64.81
2023-02-08T16:25:54.481Z,64.94
2023-02-08T16:28:30.160Z,65.29
2023-02-08T16:31:04.803Z,65.88
2023-02-08T16:33:39.888Z,66.69
2023-02-08T16:36:23.424Z,66.50
2023-02-08T16:39:14.187Z,66.37
2023-02-08T16:41:49.098Z,66.44
2023-02-08T16:44:31.014Z,66.06
2023-02-08T16:47:27.271Z,66.57
2023-02-08T16:49:59.194Z,67.22
2023-02-08T16:52:31.467Z,67.19
2023-02-08T16:55:04.472Z,67.71
2023-02-08T16:57:43.851Z,67.45
2023-02-08T17:00:18.951Z,67.33
2023-02-08T17:02:51.633Z,67.96
2023-02-08T17:05:26.928Z,67.74
2023-02-08T17:07:59.960Z,67.63
2023-02-08T17:10:32.934Z,67.60
2023-02-08T17:13:20.005Z,68.10
2023-02-08T17:15:54.410Z,68.88
2023-02-08T17:18:26.886Z,69.22
2023-02-08T17:21:00.320Z,68.74
2023-02-08T17:23:32.444Z,68.73
2023-02-08T17:26:15.930Z,68.79
2023-02-08T17:28:50.650Z,68.59
2023-02-08T17:31:23.609Z,68.43
2023-02-08T17:33:58.673Z,68.43
2023-02-08T17:36:33.173Z,68.43
2023-02-08T17:39:06.372Z,68.63
2023-02-08T17:41:40.277Z,68.16
2023-02-08T17:44:13.282Z,68.33
2023-02-08T17:46:48.292Z,68.49
2023-02-08T17:49:20.267Z,68.60
2023-02-08T17:51:52.277Z,68.34
2023-02-08T17:54:24.570Z,68.83
2023-02-08T17:56:58.988Z,68.86
2023-02-08T17:59:31.124Z,69.04
2023-02-08T18:02:03.257Z,69.66
2023-02-08T18:04:36.032Z,69.55
2023-02-08T18:07:08.071Z,69.23
2023-02-08T18:09:40.062Z,69.27
2023-02-08T18:12:12.183Z,69.13
2023-02-08T18:14:44.317Z,69.21
2023-02-08T18:17:16.321Z,69.22
2023-02-08T18:19:48.379Z,69.23
2023-02-08T18:22:22.134Z,69.58
2023-02-08T18:24:55.837Z,69.77
2023-02-08T18:27:28.262Z,69.57
2023-02-08T18:30:00.737Z,70.02
2023-02-08T18:32:32.692Z,70.14
2023-02-08T18:35:07.129Z,70.34
2023-02-08T18:37:40.252Z,71.31
2023-02-08T18:40:12.674Z,70.34
2023-02-08T18:42:44.854Z,70.17
2023-02-08T18:45:17.590Z,70.60
2023-02-08T18:47:49.590Z,70.32
2023-02-08T18:50:21.601Z,70.93
2023-02-08T18:52:53.818Z,71.25
2023-02-08T18:55:25.896Z,71.28
2023-02-08T18:57:58.019Z,71.00
2023-02-08T19:00:29.988Z,70.53
2023-02-08T19:03:02.098Z,70.28
2023-02-08T19:05:38.341Z,70.49
2023-02-08T19:08:10.774Z,70.46
2023-02-08T19:10:44.278Z,70.52
2023-02-08T19:13:17.030Z,71.25
2023-02-08T19:15:49.815Z,70.71
2023-02-08T19:18:21.865Z,70.48
2023-02-08T19:20:54.053Z,70.56
2023-02-08T19:23:26.086Z,70.63
2023-02-08T19:26:03.349Z,70.18
2023-02-08T19:28:36.099Z,70.57
2023-02-08T19:31:15.005Z,70.46
2023-02-08T19:33:49.632Z,70.88
2023-02-08T19:36:25.124Z,70.49
2023-02-08T19:38:58.789Z,70.49
2023-02-08T19:41:39.470Z,70.72
2023-02-08T19:44:12.693Z,70.64
2023-02-08T19:46:49.103Z,70.52
2023-02-08T19:49:22.013Z,71.09
2023-02-08T19:51:54.291Z,70.31
2023-02-08T19:54:26.438Z,70.47
2023-02-08T19:56:58.486Z,70.52
2023-02-08T19:59:35.311Z,70.24
2023-02-08T20:02:11.796Z,69.94
2023-02-08T20:04:44.087Z,70.71
2023-02-08T20:07:16.022Z,71.40
2023-02-08T20:09:48.304Z,70.61
2023-02-08T20:12:21.239Z,70.12
2023-02-08T20:14:53.876Z,70.78
2023-02-08T20:17:25.793Z,70.43
2023-02-08T20:19:57.668Z,70.10
2023-02-08T20:22:29.765Z,70.04
2023-02-08T20:25:01.848Z,69.89
2023-02-08T20:27:33.971Z,70.32
2023-02-08T20:30:06.530Z,70.34
2023-02-08T20:32:42.407Z,70.32
2023-02-08T20:35:18.050Z,69.56
2023-02-08T20:37:50.074Z,69.69
2023-02-08T20:40:23.035Z,69.33
2023-02-08T20:42:55.211Z,69.69
2023-02-08T20:45:27.344Z,70.12
2023-02-08T20:47:59.450Z,70.29
2023-02-08T20:50:33.479Z,70.88
2023-02-08T20:53:05.521Z,71.67
2023-02-08T20:55:41.728Z,70.70
2023-02-08T20:58:13.873Z,70.36
2023-02-08T21:00:46.561Z,70.44
2023-02-08T21:03:19.035Z,70.48
2023-02-08T21:05:50.991Z,70.32
2023-02-08T21:08:23.178Z,70.27
2023-02-08T21:10:55.296Z,70.74
2023-02-08T21:13:27.344Z,70.95
2023-02-08T21:15:59.458Z,70.93
2023-02-08T21:18:31.510Z,70.82
2023-02-08T21:21:05.242Z,71.00
2023-02-08T21:23:38.074Z,70.96
2023-02-08T21:26:12.372Z,70.77
2023-02-08T21:28:45.150Z,70.68
2023-02-08T21:31:22.493Z,71.10
2023-02-08T21:33:54.716Z,71.31
2023-02-08T21:36:26.694Z,71.10
2023-02-08T21:38:59.361Z,70.76
2023-02-08T21:41:33.690Z,70.71
2023-02-08T21:44:08.442Z,70.56
2023-02-08T21:46:40.550Z,71.01
2023-02-08T21:49:31.002Z,71.02
2023-02-08T21:52:21.718Z,70.70
2023-02-08T21:54:54.082Z,71.24
2023-02-08T21:57:28.895Z,71.11
2023-02-08T22:00:01.703Z,71.01
2023-02-08T22:02:34.189Z,71.00
2023-02-08T22:05:06.437Z,70.99
2023-02-08T22:07:45.868Z,71.12
2023-02-08T22:10:21.330Z,71.04
2023-02-08T22:12:55.020Z,70.99
2023-02-08T22:15:29.519Z,71.06
2023-02-08T22:18:03.367Z,71.18
2023-02-08T22:20:35.582Z,71.19
2023-02-08T22:23:07.575Z,71.24
2023-02-08T22:25:40.136Z,71.29
2023-02-08T22:28:12.177Z,71.33
2023-02-08T22:30:48.406Z,71.24
2023-02-08T22:33:20.807Z,71.18
2023-02-08T22:35:52.825Z,71.63
2023-02-08T22:38:25.057Z,71.42
2023-02-08T22:40:57.081Z,71.28
2023-02-08T22:43:30.113Z,71.21
2023-02-08T22:46:02.605Z,71.56
2023-02-08T22:48:35.367Z,71.39
2023-02-08T22:51:15.124Z,71.15
2023-02-08T22:53:47.592Z,71.01
2023-02-08T22:56:19.734Z,71.01
2023-02-08T22:58:51.760Z,71.51
2023-02-08T23:01:23.828Z,71.56
2023-02-08T23:03:56.015Z,71.06
2023-02-08T23:06:28.562Z,71.46
2023-02-08T23:09:00.556Z,71.39
2023-02-08T23:11:33.227Z,71.65
2023-02-08T23:14:05.191Z,71.71
2023-02-08T23:16:37.264Z,71.54
2023-02-08T23:19:14.598Z,71.67
2023-02-08T23:21:47.196Z,72.23
2023-02-08T23:24:19.398Z,72.24
2023-02-08T23:26:51.445Z,72.20
2023-02-08T23:29:23.473Z,72.55
2023-02-08T23:31:55.536Z,72.14
2023-02-08T23:34:27.631Z,72.18
2023-02-08T23:36:59.527Z,71.84
2023-02-08T23:39:33.684Z,72.16
2023-02-08T23:42:06.020Z,71.85
2023-02-08T23:44:38.011Z,72.01
2023-02-08T23:47:10.049Z,71.87
2023-02-08T23:49:42.229Z,72.24
2023-02-08T23:52:14.654Z,72.29
2023-02-08T23:54:47.033Z,72.02
2023-02-08T23:57:19.040Z,72.26
2023-02-08T23:59:51.266Z,72.19
